Ana Sayfa
METAR-TAF:

METAR-TAF

Havaalanları :

Bandırma Havalimanı

Bandırma, Türkiye

Enlem: 40-19N, Boylam: 027-58E, yükseklik: 51 m

METAR: eksik

Saat: 03:10 (00:10 UTC)

Tahmin

Rapor saat 22:40 UTC de 1 saat ve 30 dakika önce yapıldı.
Ayın 24'si saat 00 UTC'den ayın 24'si saat 09 UTC'ye kadar geçerli Tahmin
Rüzgar değişken yönden 2 kt
Görüş mesafesi 10 km veya daha fazla
3500 ft yükseklikte parçalı bulutlu
10000 ft yükseklikte parçalı çok bulutlu
Geçici
ayın 24'si saat 00 UTC'den ayın 24'si saat 04 UTC'ye kadar
hafif sağanak yağmurlar
Geçici
ayın 24'si saat 04 UTC'den ayın 24'si saat 08 UTC'ye kadar
hafif sağanak yağmurlar

TAF: LTBG 232240Z 2400/2409 VRB02KT 9999 SCT035 BKN100 TEMPO 2400/2404 -SHRA TEMPO 2404/2408 -SHRA

4.000'den fazla havaalanı için hava durumu gözlemleri ve tahminleri (METAR ve TAF raporları).

Kullanılabilir istasyonlar harita üzerinde sarı ve kırmızı noktalarla gösterilir.

İstasyonun adını görmek için fareyi noktanın üzerinde gezdirin.

Sonrasında hava gözlem ve tahminlerini görmek için tıklayın.

Haritayı değiştirmek için: yaklaştırmak için siyah artı işaretli yeşil düğmeye ve uzaklaştırmak için de eksi işaretli düğmeye hızla tıklayın; bitişik haritalar için yeşil okları kullanın.


METAR-TAF: